Time;durP1;ratioP1;P1;durP2;ratioP2;P2;SDS_P1;SDS_P2;PMS_P1;PMS_P2;Temp;Humidity;BMP_temperature;BMP_pressure;BME280_temperature;BME280_humidity;BME280_pressure;Samples;Min_cycle;Max_cycle;Signal;HPM_P1;HPM_P2
2024/01/16 00:02:07;;;;;;;3.40;2.00;;;;;;;-1.34;91.68;98570.16;52618;1260;1096667;-82
2024/01/16 00:04:53;;;;;;;4.90;2.10;;;;;;;-1.35;91.29;98579.02;52420;1261;1097252;-81
2024/01/16 00:07:41;;;;;;;3.70;1.80;;;;;;;-1.37;91.39;98588.28;52411;1257;1097892;-80
2024/01/16 00:10:26;;;;;;;3.00;1.40;;;;;;;-1.38;91.37;98595.59;52605;1257;1097319;-81
2024/01/16 00:13:12;;;;;;;2.70;1.60;;;;;;;-1.39;91.29;98594.15;52598;1260;1096699;-81
2024/01/16 00:15:58;;;;;;;4.10;1.90;;;;;;;-1.40;91.33;98596.52;52532;1257;1097346;-81
2024/01/16 00:18:44;;;;;;;4.30;2.00;;;;;;;-1.42;91.05;98609.09;52679;1260;1097976;-81
2024/01/16 00:21:29;;;;;;;2.50;1.80;;;;;;;-1.43;91.02;98608.59;52701;1261;1096954;-81
2024/01/16 00:24:15;;;;;;;9.50;2.80;;;;;;;-1.44;91.18;98617.52;52384;1257;1097674;-81
2024/01/16 00:27:01;;;;;;;3.80;2.30;;;;;;;-1.44;90.92;98623.55;52516;1256;1096876;-80
2024/01/16 00:29:47;;;;;;;2.80;1.70;;;;;;;-1.45;91.01;98625.73;52378;1257;1098059;-80
2024/01/16 00:32:33;;;;;;;1.90;1.60;;;;;;;-1.45;90.92;98634.30;52357;1260;1097040;-81
2024/01/16 00:35:19;;;;;;;4.80;1.40;;;;;;;-1.46;90.99;98639.65;52265;1260;1099436;-80
2024/01/16 00:38:05;;;;;;;2.60;1.50;;;;;;;-1.45;91.17;98640.44;52597;1260;1096705;-81
2024/01/16 00:40:50;;;;;;;3.00;1.50;;;;;;;-1.44;91.20;98643.80;52495;1258;1097487;-80
2024/01/16 00:43:36;;;;;;;3.40;1.70;;;;;;;-1.43;91.14;98648.33;52516;1261;1098187;-80
2024/01/16 00:46:21;;;;;;;4.00;1.60;;;;;;;-1.43;91.00;98653.88;52432;1260;1097299;-80
2024/01/16 00:49:07;;;;;;;4.50;1.60;;;;;;;-1.44;90.68;98658.52;52596;1258;1097229;-81
2024/01/16 00:51:53;;;;;;;3.30;1.50;;;;;;;-1.44;90.68;98660.31;52629;1263;1097980;-81
2024/01/16 00:54:39;;;;;;;7.30;3.30;;;;;;;-1.44;90.44;98669.45;52653;1260;1097318;-81
2024/01/16 00:57:25;;;;;;;3.40;2.40;;;;;;;-1.45;90.12;98670.41;52583;1261;1096706;-82
2024/01/16 01:00:11;;;;;;;4.20;1.60;;;;;;;-1.44;89.97;98669.10;52606;1260;1097085;-80
2024/01/16 01:02:58;;;;;;;1.80;1.60;;;;;;;-1.44;89.72;98674.77;52540;1257;1099043;-81
2024/01/16 01:05:44;;;;;;;3.00;1.30;;;;;;;-1.42;89.63;98681.27;52590;1257;1097588;-81
2024/01/16 01:08:30;;;;;;;2.20;1.50;;;;;;;-1.42;89.10;98676.55;52530;1260;1098025;-81
2024/01/16 01:11:15;;;;;;;1.80;1.30;;;;;;;-1.43;88.54;98683.60;52550;1261;1096933;-81
2024/01/16 01:14:01;;;;;;;2.40;1.20;;;;;;;-1.43;87.99;98692.75;52409;1257;1097381;-81
2024/01/16 01:16:46;;;;;;;1.50;1.20;;;;;;;-1.45;87.35;98692.30;52717;1257;1096548;-81
2024/01/16 01:19:32;;;;;;;3.90;1.80;;;;;;;-1.47;87.04;98695.02;52720;1260;1097597;-81
2024/01/16 01:22:18;;;;;;;2.40;1.40;;;;;;;-1.45;87.06;98706.29;52576;1257;1097839;-82
2024/01/16 01:25:04;;;;;;;3.10;1.90;;;;;;;-1.46;87.41;98722.44;52439;1261;1097513;-80
2024/01/16 01:27:50;;;;;;;3.90;1.90;;;;;;;-1.47;87.78;98721.69;52426;1257;1096727;-80
2024/01/16 01:30:36;;;;;;;3.90;1.60;;;;;;;-1.48;88.02;98722.69;52494;1261;1096803;-81
2024/01/16 01:33:22;;;;;;;4.40;1.90;;;;;;;-1.49;88.41;98725.88;52235;1260;1097193;-81
2024/01/16 01:36:08;;;;;;;6.50;3.20;;;;;;;-1.48;88.65;98728.11;52651;1261;1097347;-81
2024/01/16 01:38:54;;;;;;;2.90;2.20;;;;;;;-1.49;88.52;98739.27;52583;1260;1097937;-79
2024/01/16 01:41:39;;;;;;;3.70;2.70;;;;;;;-1.52;87.80;98743.27;52479;1256;1098197;-80
2024/01/16 01:44:25;;;;;;;3.90;1.60;;;;;;;-1.57;87.15;98753.48;52295;1257;1097388;-81
2024/01/16 01:47:10;;;;;;;3.70;1.80;;;;;;;-1.58;86.81;98759.52;52535;1258;1098254;-80
2024/01/16 01:49:57;;;;;;;2.80;1.40;;;;;;;-1.59;86.98;98765.56;52199;1258;1097308;-80
2024/01/16 01:52:43;;;;;;;4.10;1.70;;;;;;;-1.60;86.76;98766.77;52667;1257;1097328;-81
2024/01/16 01:55:29;;;;;;;2.60;1.60;;;;;;;-1.64;86.92;98775.70;52525;1259;1097458;-82
2024/01/16 01:58:16;;;;;;;3.50;1.60;;;;;;;-1.66;86.69;98778.39;52436;1261;1097119;-81
2024/01/16 02:01:03;;;;;;;2.50;1.50;;;;;;;-1.70;86.23;98785.08;52443;1263;1096684;-81
2024/01/16 02:03:51;;;;;;;2.80;2.00;;;;;;;-1.72;86.17;98787.36;52519;1260;1097930;-82
2024/01/16 02:06:36;;;;;;;4.50;1.40;;;;;;;-1.72;85.85;98792.88;52602;1260;1097329;-81
2024/01/16 02:09:22;;;;;;;3.50;1.70;;;;;;;-1.75;85.53;98797.55;52522;1258;1096968;-81
2024/01/16 02:12:08;;;;;;;2.30;1.40;;;;;;;-1.78;85.26;98798.48;52445;1257;1098000;-81
2024/01/16 02:14:54;;;;;;;1.80;1.30;;;;;;;-1.79;84.87;98806.17;52539;1260;1098280;-80
2024/01/16 02:17:40;;;;;;;3.30;1.20;;;;;;;-1.84;84.27;98812.82;52549;1260;1097094;-81
2024/01/16 02:20:26;;;;;;;2.70;1.30;;;;;;;-1.94;83.89;98817.31;52580;1261;1097228;-80
2024/01/16 02:23:14;;;;;;;2.90;1.60;;;;;;;-2.00;83.83;98826.79;52377;1260;1097811;-80
2024/01/16 02:26:01;;;;;;;3.30;1.70;;;;;;;-2.06;83.59;98828.14;52333;1260;1097942;-81
2024/01/16 02:28:47;;;;;;;2.90;2.00;;;;;;;-2.13;83.50;98833.72;52421;1257;1097401;-81
2024/01/16 02:31:33;;;;;;;2.50;1.80;;;;;;;-2.18;83.71;98832.79;52440;1260;1098964;-80
2024/01/16 02:34:19;;;;;;;3.10;1.40;;;;;;;-2.23;83.71;98836.05;52474;1255;1100404;-81
2024/01/16 02:37:05;;;;;;;3.60;1.60;;;;;;;-2.27;83.65;98841.52;52507;1257;1097534;-81
2024/01/16 02:39:51;;;;;;;4.30;2.10;;;;;;;-2.29;84.06;98849.95;52671;1261;1096921;-81
2024/01/16 02:42:37;;;;;;;2.40;1.80;;;;;;;-2.32;84.06;98854.52;52717;1260;1097994;-81
2024/01/16 02:45:23;;;;;;;2.80;1.90;;;;;;;-2.36;84.22;98865.33;52669;1260;1097401;-81
2024/01/16 02:48:09;;;;;;;3.70;2.00;;;;;;;-2.37;84.42;98874.09;52599;1257;1098349;-82
2024/01/16 02:50:54;;;;;;;3.70;1.50;;;;;;;-2.38;84.38;98880.00;52529;1260;1097630;-81
2024/01/16 02:53:40;;;;;;;2.00;1.70;;;;;;;-2.40;84.68;98885.29;52553;1257;1097464;-82
2024/01/16 02:56:26;;;;;;;3.60;1.70;;;;;;;-2.41;84.92;98884.65;52638;1257;1097496;-82
2024/01/16 02:59:11;;;;;;;4.40;1.90;;;;;;;-2.40;85.01;98887.33;52636;1257;1098184;-81
2024/01/16 03:01:57;;;;;;;6.00;3.00;;;;;;;-2.39;85.15;98894.27;52476;1255;1097474;-81
2024/01/16 03:04:43;;;;;;;6.40;4.00;;;;;;;-2.39;85.18;98894.39;52449;1257;1099304;-81
2024/01/16 03:07:29;;;;;;;7.60;4.00;;;;;;;-2.41;85.11;98893.71;52542;1257;1097974;-82
2024/01/16 03:10:15;;;;;;;8.30;3.10;;;;;;;-2.42;85.24;98901.79;52591;1257;1097523;-81
2024/01/16 03:13:00;;;;;;;4.50;2.30;;;;;;;-2.47;84.92;98902.48;52543;1260;1096888;-82
2024/01/16 03:15:46;;;;;;;6.00;2.50;;;;;;;-2.51;84.96;98906.73;52464;1257;1097047;-82
2024/01/16 03:18:32;;;;;;;4.60;2.50;;;;;;;-2.55;84.96;98904.50;52404;1263;1096937;-81
2024/01/16 03:21:17;;;;;;;4.40;2.20;;;;;;;-2.57;84.98;98905.98;52680;1255;1096832;-80
2024/01/16 03:24:04;;;;;;;2.90;1.70;;;;;;;-2.60;84.82;98911.16;52525;1258;1097439;-82
2024/01/16 03:26:49;;;;;;;2.80;1.80;;;;;;;-2.63;85.01;98913.33;52518;1260;1097814;-81
2024/01/16 03:29:35;;;;;;;3.00;1.80;;;;;;;-2.67;84.73;98918.29;52294;1261;1097631;-80
2024/01/16 03:32:21;;;;;;;3.40;1.80;;;;;;;-2.71;84.61;98917.48;52634;1260;1097509;-80
2024/01/16 03:35:07;;;;;;;3.00;1.50;;;;;;;-2.74;84.43;98920.88;52512;1257;1098145;-82
2024/01/16 03:37:53;;;;;;;3.00;1.60;;;;;;;-2.77;84.25;98927.85;52477;1260;1098058;-81
2024/01/16 03:40:39;;;;;;;4.50;1.80;;;;;;;-2.83;84.21;98934.17;52480;1263;1098189;-82
2024/01/16 03:43:24;;;;;;;6.40;2.20;;;;;;;-2.87;84.18;98941.69;52673;1261;1096846;-81
2024/01/16 03:46:11;;;;;;;2.80;1.70;;;;;;;-2.93;84.02;98950.98;52583;1255;1096923;-81
2024/01/16 03:48:57;;;;;;;2.90;2.10;;;;;;;-2.97;84.09;98954.55;52443;1262;1096889;-81
2024/01/16 03:51:46;;;;;;;6.10;2.40;;;;;;;-3.03;83.72;98955.59;52621;1261;1096957;-81
2024/01/16 03:54:31;;;;;;;3.30;1.80;;;;;;;-3.11;83.72;98962.98;52496;1261;1097998;-82
2024/01/16 03:57:17;;;;;;;4.00;1.90;;;;;;;-3.15;83.79;98973.44;52607;1260;1097927;-81
2024/01/16 04:00:05;;;;;;;4.70;1.90;;;;;;;-3.18;83.81;98973.66;52568;1260;1098054;-81
2024/01/16 04:02:50;;;;;;;4.60;2.10;;;;;;;-3.21;83.75;98972.26;52534;1261;1096680;-81
2024/01/16 04:05:36;;;;;;;4.10;2.10;;;;;;;-3.25;83.86;98980.14;52535;1259;1097426;-80
2024/01/16 04:08:22;;;;;;;5.00;2.40;;;;;;;-3.31;83.68;98985.55;52620;1260;1097794;-81
2024/01/16 04:11:15;;;;;;;5.30;2.80;;;;;;;-3.34;83.52;98984.61;52618;1257;1096744;-81
2024/01/16 04:14:01;;;;;;;4.30;2.20;;;;;;;-3.38;83.50;98985.88;52423;1257;1097317;-82
2024/01/16 04:16:47;;;;;;;2.90;1.90;;;;;;;-3.43;83.39;98987.59;52448;1260;1097905;-81
2024/01/16 04:19:33;;;;;;;4.60;2.00;;;;;;;-3.47;83.51;98995.77;52556;1260;1096605;-81
2024/01/16 04:22:19;;;;;;;4.60;2.20;;;;;;;-3.50;83.66;99002.14;52547;1257;1097852;-82
2024/01/16 04:25:05;;;;;;;6.40;2.90;;;;;;;-3.49;83.58;99005.59;52568;1257;1097800;-81
2024/01/16 04:27:51;;;;;;;7.10;3.40;;;;;;;-3.50;83.43;99008.61;52660;1257;1097348;-82
2024/01/16 04:30:36;;;;;;;3.20;2.40;;;;;;;-3.53;83.43;99020.75;52618;1260;1098172;-81
2024/01/16 04:33:22;;;;;;;5.70;3.30;;;;;;;-3.57;83.17;99026.89;52661;1256;1097515;-81
2024/01/16 04:36:09;;;;;;;5.80;3.50;;;;;;;-3.61;83.30;99038.02;52328;1260;1096923;-82
2024/01/16 04:38:55;;;;;;;4.20;2.80;;;;;;;-3.62;83.50;99040.90;52644;1261;1098409;-81
2024/01/16 04:41:41;;;;;;;5.40;3.40;;;;;;;-3.62;83.49;99045.98;52625;1260;1097262;-81
2024/01/16 04:44:26;;;;;;;4.10;2.60;;;;;;;-3.62;83.25;99052.48;52516;1261;1097767;-82
2024/01/16 04:47:11;;;;;;;9.20;3.90;;;;;;;-3.66;83.47;99049.98;52592;1257;1096933;-81
2024/01/16 04:49:57;;;;;;;5.70;3.20;;;;;;;-3.67;83.59;99055.69;52545;1255;1097357;-82
2024/01/16 04:52:43;;;;;;;5.90;3.60;;;;;;;-3.67;83.72;99061.45;52374;1264;1097233;-82
2024/01/16 04:55:29;;;;;;;7.80;4.00;;;;;;;-3.71;83.48;99060.45;52524;1260;1097497;-82
2024/01/16 04:58:15;;;;;;;5.00;3.50;;;;;;;-3.72;83.83;99062.53;52353;1255;1097756;-82
2024/01/16 05:01:00;;;;;;;8.20;3.80;;;;;;;-3.70;83.74;99060.46;52652;1256;1097718;-82
2024/01/16 05:03:46;;;;;;;6.70;4.10;;;;;;;-3.72;83.72;99069.20;52566;1261;1096970;-82
2024/01/16 05:06:31;;;;;;;6.70;3.70;;;;;;;-3.76;83.54;99069.00;52418;1257;1097149;-82
2024/01/16 05:09:19;;;;;;;4.50;3.60;;;;;;;-3.78;83.66;99077.58;52560;1260;1097034;-81
2024/01/16 05:12:05;;;;;;;6.70;3.10;;;;;;;-3.79;84.05;99083.64;52912;1261;1097699;-81
2024/01/16 05:14:51;;;;;;;5.60;2.80;;;;;;;-3.78;84.29;99088.59;52278;1260;1097685;-81
2024/01/16 05:17:37;;;;;;;5.70;2.70;;;;;;;-3.77;84.35;99092.15;52629;1257;1097546;-81
2024/01/16 05:20:23;;;;;;;3.50;2.00;;;;;;;-3.75;84.53;99096.04;52679;1260;1097341;-81
2024/01/16 05:23:08;;;;;;;8.20;3.30;;;;;;;-3.72;84.28;99105.28;52378;1260;1097151;-80
2024/01/16 05:25:54;;;;;;;7.10;2.00;;;;;;;-3.69;84.51;99111.15;52623;1257;1098236;-81
2024/01/16 05:28:40;;;;;;;3.40;1.70;;;;;;;-3.68;84.40;99117.35;52386;1258;1097162;-80
2024/01/16 05:31:26;;;;;;;3.50;2.30;;;;;;;-3.68;84.32;99123.10;52603;1256;1097443;-81
2024/01/16 05:34:11;;;;;;;4.90;2.20;;;;;;;-3.68;84.39;99126.75;52622;1270;1097252;-81
2024/01/16 05:36:57;;;;;;;4.70;2.30;;;;;;;-3.64;84.69;99128.35;52570;1261;1097728;-80
2024/01/16 05:39:43;;;;;;;4.70;2.10;;;;;;;-3.60;84.80;99134.79;52596;1257;1096874;-81
2024/01/16 05:42:29;;;;;;;6.20;2.90;;;;;;;-3.57;84.82;99136.21;52460;1261;1098260;-81
2024/01/16 05:45:16;;;;;;;5.90;2.80;;;;;;;-3.53;84.74;99140.92;52526;1257;1097524;-81
2024/01/16 05:48:02;;;;;;;4.70;2.50;;;;;;;-3.48;84.76;99137.20;52364;1258;1097835;-81
2024/01/16 05:50:48;;;;;;;5.50;2.00;;;;;;;-3.47;84.46;99142.67;52435;1260;1097470;-80
2024/01/16 05:53:33;;;;;;;3.30;2.00;;;;;;;-3.44;84.54;99150.64;52208;1258;1098607;-80
2024/01/16 05:56:19;;;;;;;9.90;2.10;;;;;;;-3.42;84.36;99157.23;52316;1257;1097570;-80
2024/01/16 05:59:04;;;;;;;4.80;2.00;;;;;;;-3.41;84.36;99161.52;52377;1257;1097233;-81
2024/01/16 06:01:50;;;;;;;3.30;1.60;;;;;;;-3.40;84.52;99167.07;52360;1256;1097064;-81
2024/01/16 06:04:36;;;;;;;6.30;1.70;;;;;;;-3.40;84.33;99180.81;52561;1260;1097212;-81
2024/01/16 06:07:22;;;;;;;3.30;1.70;;;;;;;-3.44;84.05;99184.45;52655;1260;1097064;-81
2024/01/16 06:10:09;;;;;;;5.10;2.10;;;;;;;-3.49;84.01;99188.70;52539;1264;1096835;-81
2024/01/16 06:12:54;;;;;;;5.10;1.80;;;;;;;-3.49;84.02;99199.79;52575;1255;1097884;-80
2024/01/16 06:15:40;;;;;;;6.00;2.10;;;;;;;-3.53;84.32;99209.69;52662;1256;1097896;-81
2024/01/16 06:18:25;;;;;;;4.20;1.90;;;;;;;-3.53;84.34;99207.94;52569;1255;1097838;-81
2024/01/16 06:21:12;;;;;;;5.60;2.00;;;;;;;-3.53;84.43;99217.41;52554;1258;1096637;-82
2024/01/16 06:23:58;;;;;;;3.70;2.20;;;;;;;-3.53;84.20;99227.17;52577;1261;1098046;-82
2024/01/16 06:26:44;;;;;;;5.80;2.10;;;;;;;-3.54;84.40;99230.38;52535;1257;1097635;-82
2024/01/16 06:29:29;;;;;;;3.80;2.10;;;;;;;-3.56;84.22;99234.04;52586;1261;1097586;-82
2024/01/16 06:32:15;;;;;;;3.10;1.40;;;;;;;-3.58;84.05;99231.73;52510;1256;1097111;-80
2024/01/16 06:35:01;;;;;;;2.90;1.70;;;;;;;-3.57;84.42;99239.14;52392;1255;1097874;-81
2024/01/16 06:37:47;;;;;;;5.90;2.00;;;;;;;-3.48;85.51;99236.64;52659;1260;1097178;-82
2024/01/16 06:40:33;;;;;;;4.90;2.20;;;;;;;-3.42;85.13;99240.85;52686;1258;1097937;-81
2024/01/16 06:43:18;;;;;;;5.30;2.20;;;;;;;-3.43;84.66;99248.92;52611;1260;1097888;-82
2024/01/16 06:46:04;;;;;;;4.50;2.10;;;;;;;-3.47;84.00;99253.01;52594;1260;1098080;-82
2024/01/16 06:48:51;;;;;;;5.80;2.90;;;;;;;-3.52;83.78;99259.19;52626;1258;1097085;-82
2024/01/16 06:51:36;;;;;;;4.70;2.10;;;;;;;-3.56;83.62;99271.53;52472;1260;1097130;-80
2024/01/16 06:54:23;;;;;;;5.80;2.40;;;;;;;-3.58;83.78;99278.88;52594;1260;1097441;-80
2024/01/16 06:57:09;;;;;;;7.80;3.40;;;;;;;-3.59;84.04;99282.92;52582;1260;1098147;-81
2024/01/16 06:59:55;;;;;;;10.40;4.60;;;;;;;-3.59;84.21;99285.38;52457;1256;1097580;-82
2024/01/16 07:02:43;;;;;;;12.70;5.20;;;;;;;-3.59;84.30;99291.30;52737;1260;1097251;-80
2024/01/16 07:05:29;;;;;;;16.10;7.90;;;;;;;-3.55;84.47;99298.85;52590;1255;1096532;-81
2024/01/16 07:08:15;;;;;;;12.20;6.00;;;;;;;-3.55;84.15;99303.38;52549;1260;1097277;-81
2024/01/16 07:11:01;;;;;;;15.00;6.90;;;;;;;-3.58;83.73;99303.09;52652;1260;1097377;-81
2024/01/16 07:13:47;;;;;;;12.00;7.50;;;;;;;-3.60;83.64;99312.56;52673;1255;1096720;-80
2024/01/16 07:16:32;;;;;;;17.70;7.80;;;;;;;-3.59;83.81;99318.25;52342;1257;1097373;-82
2024/01/16 07:19:18;;;;;;;21.40;8.80;;;;;;;-3.60;83.53;99327.73;52471;1258;1097160;-81
2024/01/16 07:22:04;;;;;;;20.70;12.50;;;;;;;-3.63;83.28;99334.98;52566;1260;1097009;-81
2024/01/16 07:24:50;;;;;;;19.60;10.10;;;;;;;-3.66;83.10;99342.56;52640;1257;1097196;-82
2024/01/16 07:27:36;;;;;;;19.80;9.60;;;;;;;-3.69;82.95;99351.36;52442;1259;1097488;-80
2024/01/16 07:30:21;;;;;;;20.40;12.40;;;;;;;-3.73;82.86;99355.13;52691;1257;1096954;-82
2024/01/16 07:33:07;;;;;;;37.50;21.30;;;;;;;-3.74;82.90;99363.27;52640;1257;1097177;-81
2024/01/16 07:35:53;;;;;;;42.40;21.60;;;;;;;-3.74;83.00;99372.00;52555;1257;1097519;-81
2024/01/16 07:38:39;;;;;;;20.30;9.20;;;;;;;-3.75;82.87;99380.30;52524;1260;1098721;-81
2024/01/16 07:41:24;;;;;;;19.80;8.50;;;;;;;-3.79;82.88;99374.48;52694;1255;1098669;-81
2024/01/16 07:44:10;;;;;;;17.80;9.10;;;;;;;-3.83;82.77;99381.30;52687;1256;1097377;-81
2024/01/16 07:46:55;;;;;;;17.80;8.00;;;;;;;-3.86;82.75;99385.02;52465;1260;1097535;-81
2024/01/16 07:49:42;;;;;;;12.50;5.90;;;;;;;-3.89;82.79;99384.78;52584;1260;1096547;-82
2024/01/16 07:52:28;;;;;;;16.10;7.70;;;;;;;-3.94;82.58;99391.95;52592;1263;1097377;-81
2024/01/16 07:55:14;;;;;;;13.40;5.20;;;;;;;-3.98;82.47;99389.84;52478;1260;1097432;-81
2024/01/16 07:58:00;;;;;;;9.80;4.40;;;;;;;-4.00;82.32;99389.15;52485;1260;1097476;-82
2024/01/16 08:00:45;;;;;;;12.60;5.50;;;;;;;-4.01;82.28;99390.44;52600;1259;1096863;-82
2024/01/16 08:03:31;;;;;;;7.90;3.50;;;;;;;-4.00;82.08;99385.63;52636;1260;1097313;-82
2024/01/16 08:06:16;;;;;;;9.90;3.60;;;;;;;-4.00;81.94;99391.56;52570;1260;1096891;-82
2024/01/16 08:09:02;;;;;;;5.80;2.10;;;;;;;-3.98;81.51;99402.41;52547;1261;1097483;-83
2024/01/16 08:11:48;;;;;;;4.50;2.20;;;;;;;-3.99;81.04;99409.61;52398;1255;1097813;-82
2024/01/16 08:14:34;;;;;;;5.70;2.70;;;;;;;-4.03;80.86;99413.95;52568;1258;1096884;-81
2024/01/16 08:17:20;;;;;;;3.20;1.80;;;;;;;-4.04;80.77;99423.27;52470;1257;1098479;-81
2024/01/16 08:20:09;;;;;;;4.50;1.60;;;;;;;-4.05;80.53;99427.87;52515;1259;1096486;-82
2024/01/16 08:22:55;;;;;;;4.00;2.80;;;;;;;-4.05;80.56;99430.85;52280;1255;1097469;-82
2024/01/16 08:25:41;;;;;;;3.10;1.40;;;;;;;-4.03;80.52;99428.92;52303;1256;1098120;-81
2024/01/16 08:28:27;;;;;;;3.70;1.40;;;;;;;-4.00;80.29;99428.16;52444;1260;1096795;-81
2024/01/16 08:31:17;;;;;;;2.70;1.50;;;;;;;-3.97;80.45;99440.48;52542;1260;1097640;-82
2024/01/16 08:34:03;;;;;;;3.50;1.50;;;;;;;-3.95;80.41;99442.75;52663;1261;1098365;-82
2024/01/16 08:36:48;;;;;;;3.20;1.60;;;;;;;-3.90;80.38;99444.48;52589;1256;1097810;-81
2024/01/16 08:39:34;;;;;;;3.80;1.80;;;;;;;-3.87;80.24;99452.20;52438;1261;1097077;-81
2024/01/16 08:42:20;;;;;;;4.70;2.40;;;;;;;-3.85;79.93;99453.98;52425;1257;1097624;-82
2024/01/16 08:45:06;;;;;;;4.10;1.60;;;;;;;-3.82;80.00;99459.17;52558;1264;1097691;-82
2024/01/16 08:47:52;;;;;;;6.00;1.80;;;;;;;-3.79;79.91;99470.61;52554;1256;1097364;-82
2024/01/16 08:50:37;;;;;;;8.40;2.50;;;;;;;-3.74;80.07;99475.42;52541;1261;1096725;-82
2024/01/16 08:53:23;;;;;;;11.10;3.70;;;;;;;-3.69;80.12;99479.41;52379;1256;1096657;-82
2024/01/16 08:56:09;;;;;;;11.00;4.80;;;;;;;-3.66;79.99;99481.54;52538;1255;1097479;-80
2024/01/16 08:58:55;;;;;;;14.70;6.20;;;;;;;-3.61;80.45;99485.16;52594;1255;1098134;-82
2024/01/16 09:01:41;;;;;;;18.40;6.30;;;;;;;-3.58;80.38;99489.56;52625;1261;1097719;-82
2024/01/16 09:04:27;;;;;;;12.70;5.30;;;;;;;-3.55;80.41;99489.54;52543;1260;1096690;-82
2024/01/16 09:07:15;;;;;;;12.20;6.00;;;;;;;-3.54;80.54;99493.45;52508;1260;1097122;-80
2024/01/16 09:10:01;;;;;;;9.10;4.60;;;;;;;-3.52;80.71;99492.64;52596;1260;1097937;-83
2024/01/16 09:12:48;;;;;;;13.10;4.60;;;;;;;-3.51;80.63;99496.70;52657;1255;1097379;-81
2024/01/16 09:15:34;;;;;;;8.20;3.70;;;;;;;-3.49;80.60;99498.84;52468;1255;1096642;-81
2024/01/16 09:18:20;;;;;;;11.40;4.10;;;;;;;-3.48;80.69;99500.51;52441;1255;1097498;-81
2024/01/16 09:21:06;;;;;;;9.50;5.40;;;;;;;-3.46;80.66;99501.15;52555;1261;1097291;-81
2024/01/16 09:23:51;;;;;;;10.30;4.20;;;;;;;-3.42;80.83;99499.95;52672;1261;1097423;-81
2024/01/16 09:26:37;;;;;;;13.00;5.70;;;;;;;-3.40;80.72;99504.53;52714;1257;1097273;-82
2024/01/16 09:29:24;;;;;;;13.00;6.90;;;;;;;-3.41;80.87;99508.12;52705;1261;1097978;-82
2024/01/16 09:32:09;;;;;;;14.00;6.40;;;;;;;-3.40;80.77;99509.10;52680;1256;1097501;-81
2024/01/16 09:34:55;;;;;;;11.80;5.70;;;;;;;-3.38;80.65;99518.52;52691;1261;1096972;-81
2024/01/16 09:37:41;;;;;;;11.20;5.50;;;;;;;-3.37;80.83;99518.71;52479;1257;1097523;-81
2024/01/16 09:40:27;;;;;;;8.90;4.00;;;;;;;-3.35;80.81;99518.23;52551;1259;1096454;-81
2024/01/16 09:43:12;;;;;;;12.40;4.80;;;;;;;-3.31;80.73;99518.95;52715;1261;1096562;-81
2024/01/16 09:46:01;;;;;;;11.70;4.70;;;;;;;-3.28;80.90;99518.21;52648;1260;1097351;-81
2024/01/16 09:48:48;;;;;;;11.30;4.60;;;;;;;-3.27;80.79;99525.41;52678;1256;1097719;-81
2024/01/16 09:51:34;;;;;;;12.00;4.70;;;;;;;-3.24;80.85;99526.75;52604;1260;1096942;-82
2024/01/16 09:54:20;;;;;;;10.40;4.60;;;;;;;-3.20;80.82;99530.66;52536;1256;1097560;-81
2024/01/16 09:57:07;;;;;;;12.30;4.70;;;;;;;-3.19;80.59;99534.55;52561;1261;1096848;-81
2024/01/16 09:59:56;;;;;;;10.40;5.10;;;;;;;-3.17;80.77;99540.14;52449;1256;1097083;-81
2024/01/16 10:02:42;;;;;;;11.30;5.70;;;;;;;-3.15;80.62;99540.66;52430;1257;1097657;-82
2024/01/16 10:05:30;;;;;;;12.60;5.10;;;;;;;-3.14;80.82;99540.38;52408;1258;1097414;-82
2024/01/16 10:08:15;;;;;;;9.70;4.80;;;;;;;-3.07;80.97;99545.25;52617;1257;1097571;-81
2024/01/16 10:11:01;;;;;;;12.20;5.20;;;;;;;-3.05;80.58;99551.75;52565;1258;1097191;-82
2024/01/16 10:13:48;;;;;;;10.50;5.30;;;;;;;-3.06;80.25;99551.80;52494;1256;1097678;-81
2024/01/16 10:17:05;;;;;;;11.10;5.70;;;;;;;-3.07;80.27;99561.65;52528;1255;1096649;-82
2024/01/16 10:19:56;;;;;;;11.90;6.50;;;;;;;-3.05;80.27;99570.75;52593;1261;1097896;-82
2024/01/16 10:22:52;;;;;;;12.60;6.20;;;;;;;-3.03;80.36;99576.89;52544;1260;1096929;-82
2024/01/16 10:25:38;;;;;;;10.70;5.10;;;;;;;-3.01;80.35;99585.08;52571;1263;1097003;-81
2024/01/16 10:28:24;;;;;;;13.00;5.30;;;;;;;-2.99;80.23;99579.71;52588;1261;1097555;-81
2024/01/16 10:31:13;;;;;;;16.00;5.10;;;;;;;-2.97;80.04;99579.15;52502;1258;1096958;-82
2024/01/16 10:33:59;;;;;;;10.80;4.90;;;;;;;-2.94;80.22;99584.29;52452;1258;1097112;-82
2024/01/16 10:36:45;;;;;;;10.40;4.40;;;;;;;-2.93;79.92;99582.48;52607;1261;1097759;-82
2024/01/16 10:39:31;;;;;;;16.00;5.60;;;;;;;-2.92;79.80;99581.71;52512;1260;1097317;-81
2024/01/16 10:42:39;;;;;;;16.10;6.70;;;;;;;-2.91;79.87;99578.11;52510;1261;1097748;-81
2024/01/16 10:45:26;;;;;;;13.50;6.30;;;;;;;-2.89;79.91;99586.05;52518;1259;1097485;-80
2024/01/16 10:48:11;;;;;;;11.50;5.30;;;;;;;-2.89;79.84;99589.31;52586;1264;1097575;-82
2024/01/16 10:50:57;;;;;;;14.60;5.20;;;;;;;-2.90;79.71;99591.50;52470;1258;1097434;-80
2024/01/16 10:53:46;;;;;;;14.50;6.40;;;;;;;-2.91;79.57;99593.53;52474;1260;1097923;-81
2024/01/16 10:56:32;;;;;;;12.50;5.90;;;;;;;-2.93;79.28;99592.33;52532;1261;1097276;-81
2024/01/16 10:59:48;;;;;;;8.70;5.70;;;;;;;-2.94;79.34;99594.96;52364;1260;1096524;-81
2024/01/16 11:02:43;;;;;;;13.70;6.30;;;;;;;-2.96;79.31;99594.13;52588;1257;1097815;-81
2024/01/16 11:05:33;;;;;;;14.00;6.60;;;;;;;-2.96;79.45;99590.96;52647;1256;1097444;-80
2024/01/16 11:08:20;;;;;;;14.10;6.40;;;;;;;-2.91;79.52;99599.80;53351;1259;1097597;-79
2024/01/16 11:11:08;;;;;;;22.80;7.60;;;;;;;-2.91;79.14;99601.16;52631;1256;1097445;-81
2024/01/16 11:13:54;;;;;;;22.10;9.20;;;;;;;-2.90;79.22;99603.19;52257;1261;1097349;-80
2024/01/16 11:16:41;;;;;;;16.00;6.40;;;;;;;-2.82;79.40;99603.59;52602;1261;1097293;-82
2024/01/16 11:19:27;;;;;;;13.80;5.60;;;;;;;-2.75;79.41;99601.96;52579;1257;1097387;-82
2024/01/16 11:22:15;;;;;;;11.90;5.70;;;;;;;-2.69;79.31;99606.65;52573;1261;1097355;-82
2024/01/16 11:25:15;;;;;;;19.60;7.20;;;;;;;-2.66;79.01;99605.16;52599;1261;1097416;-83
2024/01/16 11:28:08;;;;;;;16.10;7.00;;;;;;;-2.62;79.12;99609.02;52522;1260;1096794;-82
2024/01/16 11:30:54;;;;;;;15.90;9.60;;;;;;;-2.56;79.39;99608.76;52575;1261;1098320;-82
2024/01/16 11:33:39;;;;;;;9.60;5.70;;;;;;;-2.48;79.19;99605.45;52620;1261;1097036;-82
2024/01/16 11:36:54;;;;;;;11.60;6.30;;;;;;;-2.46;78.83;99607.84;52524;1258;1096996;-82
2024/01/16 11:39:41;;;;;;;15.80;5.70;;;;;;;-2.44;78.86;99603.16;52572;1260;1097679;-82
2024/01/16 11:42:27;;;;;;;15.70;7.50;;;;;;;-2.39;78.94;99610.59;52314;1260;1096636;-82
2024/01/16 11:45:28;;;;;;;11.50;6.00;;;;;;;-2.35;78.75;99615.00;52648;1271;1097433;-82
2024/01/16 11:48:15;;;;;;;17.10;6.90;;;;;;;-2.38;78.31;99611.25;52419;1260;1097226;-82
2024/01/16 11:51:25;;;;;;;16.70;6.80;;;;;;;-2.45;78.09;99618.77;52573;1258;1097387;-83
2024/01/16 11:54:11;;;;;;;10.10;5.00;;;;;;;-2.46;78.37;99618.17;52636;1255;1097054;-83
2024/01/16 11:57:09;;;;;;;16.70;6.80;;;;;;;-2.43;77.99;99619.70;52587;1263;1098161;-82
2024/01/16 11:59:59;;;;;;;21.30;9.40;;;;;;;-2.41;78.26;99617.96;52631;1256;1097527;-82
2024/01/16 12:02:49;;;;;;;18.00;7.60;;;;;;;-2.36;78.16;99618.19;52641;1257;1097002;-82
2024/01/16 12:05:35;;;;;;;11.50;6.10;;;;;;;-2.31;78.14;99616.06;52510;1258;1096889;-82
2024/01/16 12:08:21;;;;;;;14.60;6.40;;;;;;;-2.30;78.08;99616.51;52426;1256;1096841;-83
2024/01/16 12:11:07;;;;;;;20.10;7.70;;;;;;;-2.24;78.33;99620.39;52487;1256;1097718;-82
2024/01/16 12:14:03;;;;;;;20.30;7.60;;;;;;;-2.20;78.05;99628.73;52495;1257;1097427;-82
2024/01/16 12:16:49;;;;;;;18.30;8.00;;;;;;;-2.16;77.81;99640.79;52519;1256;1100075;-82
2024/01/16 12:19:35;;;;;;;16.90;6.30;;;;;;;-2.15;77.62;99650.84;52382;1261;1096916;-81
2024/01/16 12:22:22;;;;;;;16.30;6.60;;;;;;;-2.13;77.42;99651.59;52404;1260;1098110;-82
2024/01/16 12:25:08;;;;;;;12.50;5.50;;;;;;;-2.14;77.03;99659.35;52651;1261;1097072;-81
2024/01/16 12:27:59;;;;;;;17.60;7.60;;;;;;;-2.14;77.08;99658.29;52526;1261;1098440;-81
2024/01/16 12:30:49;;;;;;;13.20;6.70;;;;;;;-2.12;76.99;99660.27;52527;1260;1096982;-83
2024/01/16 12:33:34;;;;;;;20.80;9.50;;;;;;;-2.09;77.26;99662.23;53305;1261;1097407;-83
2024/01/16 12:36:20;;;;;;;17.30;8.10;;;;;;;-2.03;77.29;99659.25;52481;1260;1097763;-83
2024/01/16 12:39:06;;;;;;;21.90;11.10;;;;;;;-2.01;76.99;99661.44;52606;1256;1098037;-83
2024/01/16 12:41:52;;;;;;;12.20;6.80;;;;;;;-2.00;76.70;99661.34;52534;1256;1097379;-81
2024/01/16 12:44:38;;;;;;;14.10;5.30;;;;;;;-2.02;76.65;99659.58;52366;1264;1097107;-82